Time;durP1;ratioP1;P1;durP2;ratioP2;P2;SDS_P1;SDS_P2;PMS_P1;PMS_P2;Temp;Humidity;BMP_temperature;BMP_pressure;BME280_temperature;BME280_humidity;BME280_pressure;Samples;Min_cycle;Max_cycle;Signal;HPM_P1;HPM_P2
2024/03/25 00:01:08;;;;;;;;;;;;;;;;;;5095344;28;20424;-73
2024/03/25 00:03:34;;;;;;;;;;;;;;;;;;5095647;28;20314;-73
2024/03/25 00:06:00;;;;;;;;;;;;;;;;;;5095421;28;20005;-73
2024/03/25 00:08:26;;;;;;;;;;;;;;;;;;5094028;28;19908;-73
2024/03/25 00:10:52;;;;;;;;;;;;;;;;;;5095531;28;20380;-73
2024/03/25 00:13:20;;;;;;;;;;;;;;;;;;5095904;28;19909;-73
2024/03/25 00:15:46;;;;;;;;;;;;;;;;;;5095070;28;19912;-73
2024/03/25 00:18:12;;;;;;;;;;;;;;;;;;5094109;28;19908;-73
2024/03/25 00:20:37;;;;;;;;;;;;;;;;;;5095195;28;19950;-73
2024/03/25 00:23:03;;;;;;;;;;;;;;;;;;5095185;28;19908;-73
2024/03/25 00:25:29;;;;;;;;;;;;;;;;;;5095634;28;20395;-73
2024/03/25 00:27:56;;;;;;;;;;;;;;;;;;5095149;28;20275;-73
2024/03/25 00:30:22;;;;;;;;;;;;;;;;;;5094682;28;19957;-73
2024/03/25 00:32:48;;;;;;;;;;;;;;;;;;5095156;28;19958;-73
2024/03/25 00:35:14;;;;;;;;;;;;;;;;;;5094952;28;19908;-73
2024/03/25 00:37:40;;;;;;;;;;;;;;;;;;5094618;28;20003;-72
2024/03/25 00:40:07;;;;;;;;;;;;;;;;;;5094979;28;20294;-73
2024/03/25 00:42:33;;;;;;;;;;;;;;;;;;5094898;28;19981;-73
2024/03/25 00:44:59;;;;;;;;;;;;;;;;;;5094207;28;19912;-73
2024/03/25 00:47:26;;;;;;;;;;;;;;;;;;5095396;28;20368;-73
2024/03/25 00:49:51;;;;;;;;;;;;;;;;;;5094763;28;19914;-73
2024/03/25 00:52:17;;;;;;;;;;;;;;;;;;5094306;28;19908;-73
2024/03/25 00:54:43;;;;;;;;;;;;;;;;;;5094170;28;19908;-73
2024/03/25 00:57:11;;;;;;;;;;;;;;;;;;5094553;28;19908;-73
2024/03/25 00:59:37;;;;;;;;;;;;;;;;;;5094217;28;20447;-73
2024/03/25 01:02:03;;;;;;;;;;;;;;;;;;5094898;28;19938;-73
2024/03/25 01:04:29;;;;;;;;;;;;;;;;;;5094080;28;19908;-73
2024/03/25 01:06:55;;;;;;;;;;;;;;;;;;5094420;28;19951;-73
2024/03/25 01:09:21;;;;;;;;;;;;;;;;;;5093193;28;19908;-73
2024/03/25 01:11:47;;;;;;;;;;;;;;;;;;5094227;28;19908;-73
2024/03/25 01:14:13;;;;;;;;;;;;;;;;;;5094471;28;19915;-73
2024/03/25 01:16:39;;;;;;;;;;;;;;;;;;5094275;28;20041;-73
2024/03/25 01:19:05;;;;;;;;;;;;;;;;;;5092650;28;19908;-73
2024/03/25 01:21:31;;;;;;;;;;;;;;;;;;5094194;28;19994;-73
2024/03/25 01:23:57;;;;;;;;;;;;;;;;;;5092924;28;20332;-73
2024/03/25 01:26:23;;;;;;;;;;;;;;;;;;5093699;28;19916;-73
2024/03/25 01:28:49;;;;;;;;;;;;;;;;;;5094132;28;19995;-73
2024/03/25 01:31:15;;;;;;;;;;;;;;;;;;5092745;28;19908;-73
2024/03/25 01:33:42;;;;;;;;;;;;;;;;;;5093692;28;20414;-73
2024/03/25 01:36:08;;;;;;;;;;;;;;;;;;5092677;28;19915;-73
2024/03/25 01:38:34;;;;;;;;;;;;;;;;;;5093938;28;19916;-73
2024/03/25 01:41:00;;;;;;;;;;;;;;;;;;5092204;28;19908;-73
2024/03/25 01:43:26;;;;;;;;;;;;;;;;;;5093923;28;19959;-73
2024/03/25 01:45:51;;;;;;;;;;;;;;;;;;5093796;28;19927;-73
2024/03/25 01:48:17;;;;;;;;;;;;;;;;;;5093595;28;19912;-73
2024/03/25 01:50:43;;;;;;;;;;;;;;;;;;5092517;28;19912;-73
2024/03/25 01:53:09;;;;;;;;;;;;;;;;;;5093945;28;19916;-73
2024/03/25 01:55:36;;;;;;;;;;;;;;;;;;5093404;28;20322;-73
2024/03/25 01:58:02;;;;;;;;;;;;;;;;;;5093831;28;19916;-73
2024/03/25 02:00:27;;;;;;;;;;;;;;;;;;5093773;28;19908;-73
2024/03/25 02:02:53;;;;;;;;;;;;;;;;;;5092109;28;19934;-73
2024/03/25 02:05:19;;;;;;;;;;;;;;;;;;5093626;28;20007;-73
2024/03/25 02:07:45;;;;;;;;;;;;;;;;;;5095760;28;19916;-74
2024/03/25 02:10:14;;;;;;;;;;;;;;;;;;5098322;28;19953;-73
2024/03/25 02:12:40;;;;;;;;;;;;;;;;;;5097828;28;19952;-73
2024/03/25 02:15:06;;;;;;;;;;;;;;;;;;5097271;28;19940;-73
2024/03/25 02:17:32;;;;;;;;;;;;;;;;;;5096312;28;20364;-73
2024/03/25 02:19:58;;;;;;;;;;;;;;;;;;5097672;28;19923;-73
2024/03/25 02:22:24;;;;;;;;;;;;;;;;;;5097570;28;19987;-73
2024/03/25 02:24:50;;;;;;;;;;;;;;;;;;5097549;28;19908;-73
2024/03/25 02:27:16;;;;;;;;;;;;;;;;;;5097634;28;20376;-73
2024/03/25 02:29:42;;;;;;;;;;;;;;;;;;5097100;28;20368;-73
2024/03/25 02:32:11;;;;;;;;;;;;;;;;;;5096110;28;19908;-73
2024/03/25 02:34:37;;;;;;;;;;;;;;;;;;5096000;28;19938;-73
2024/03/25 02:37:03;;;;;;;;;;;;;;;;;;5095672;28;19912;-73
2024/03/25 02:39:29;;;;;;;;;;;;;;;;;;5095991;28;20011;-73
2024/03/25 02:41:54;;;;;;;;;;;;;;;;;;5097457;28;20356;-73
2024/03/25 02:44:20;;;;;;;;;;;;;;;;;;5096763;28;20271;-73
2024/03/25 02:46:46;;;;;;;;;;;;;;;;;;5096895;28;19920;-73
2024/03/25 02:49:12;;;;;;;;;;;;;;;;;;5097075;28;19957;-73
2024/03/25 02:51:38;;;;;;;;;;;;;;;;;;5096668;28;19947;-73
2024/03/25 02:54:04;;;;;;;;;;;;;;;;;;5097068;28;19908;-73
2024/03/25 02:56:30;;;;;;;;;;;;;;;;;;5096934;28;20395;-73
2024/03/25 02:58:56;;;;;;;;;;;;;;;;;;5096560;28;20007;-73
2024/03/25 03:01:22;;;;;;;;;;;;;;;;;;5096890;28;19953;-73
2024/03/25 03:03:48;;;;;;;;;;;;;;;;;;5096699;28;19956;-73
2024/03/25 03:06:14;;;;;;;;;;;;;;;;;;5096377;28;20011;-73
2024/03/25 03:08:40;;;;;;;;;;;;;;;;;;5096796;28;19908;-73
2024/03/25 03:11:06;;;;;;;;;;;;;;;;;;5096265;28;20012;-73
2024/03/25 03:13:32;;;;;;;;;;;;;;;;;;5096711;28;19912;-73
2024/03/25 03:15:58;;;;;;;;;;;;;;;;;;5096497;28;20291;-73
2024/03/25 03:18:24;;;;;;;;;;;;;;;;;;5095723;28;19931;-73
2024/03/25 03:20:50;;;;;;;;;;;;;;;;;;5096478;28;19908;-73
2024/03/25 03:23:16;;;;;;;;;;;;;;;;;;5095096;28;19987;-73
2024/03/25 03:25:42;;;;;;;;;;;;;;;;;;5096143;28;19919;-73
2024/03/25 03:28:08;;;;;;;;;;;;;;;;;;5095080;28;19908;-73
2024/03/25 03:30:34;;;;;;;;;;;;;;;;;;5094958;28;19908;-73
2024/03/25 03:33:01;;;;;;;;;;;;;;;;;;5094660;28;19991;-73
2024/03/25 03:35:27;;;;;;;;;;;;;;;;;;5096387;28;19931;-73
2024/03/25 03:37:53;;;;;;;;;;;;;;;;;;5094905;28;19912;-73
2024/03/25 03:40:18;;;;;;;;;;;;;;;;;;5095975;28;20348;-73
2024/03/25 03:42:44;;;;;;;;;;;;;;;;;;5096014;28;20271;-73
2024/03/25 03:45:12;;;;;;;;;;;;;;;;;;5094372;28;19920;-73
2024/03/25 03:47:38;;;;;;;;;;;;;;;;;;5095605;28;19919;-73
2024/03/25 03:50:04;;;;;;;;;;;;;;;;;;5095850;28;19908;-73
2024/03/25 03:52:30;;;;;;;;;;;;;;;;;;5094639;28;19908;-73
2024/03/25 03:54:56;;;;;;;;;;;;;;;;;;5095442;28;19915;-73
2024/03/25 03:57:22;;;;;;;;;;;;;;;;;;5096133;28;19909;-73
2024/03/25 03:59:48;;;;;;;;;;;;;;;;;;5094532;28;20376;-74
2024/03/25 04:02:14;;;;;;;;;;;;;;;;;;5093932;28;19915;-73
2024/03/25 04:04:40;;;;;;;;;;;;;;;;;;5094439;28;19909;-73
2024/03/25 04:07:06;;;;;;;;;;;;;;;;;;5095636;28;19916;-73
2024/03/25 04:09:32;;;;;;;;;;;;;;;;;;5095279;28;19995;-74
2024/03/25 04:12:00;;;;;;;;;;;;;;;;;;5095585;28;19915;-74
2024/03/25 04:14:26;;;;;;;;;;;;;;;;;;5094996;28;19927;-74
2024/03/25 04:16:53;;;;;;;;;;;;;;;;;;5094232;28;20249;-74
2024/03/25 04:19:19;;;;;;;;;;;;;;;;;;5094387;28;19908;-73
2024/03/25 04:21:45;;;;;;;;;;;;;;;;;;5095561;28;19908;-74
2024/03/25 04:24:11;;;;;;;;;;;;;;;;;;5095572;28;19921;-74
2024/03/25 04:26:36;;;;;;;;;;;;;;;;;;5094420;28;19922;-74
2024/03/25 04:29:02;;;;;;;;;;;;;;;;;;5094754;28;19912;-73
2024/03/25 04:31:28;;;;;;;;;;;;;;;;;;5095238;28;20356;-74
2024/03/25 04:33:54;;;;;;;;;;;;;;;;;;5095357;28;19915;-74
2024/03/25 04:36:20;;;;;;;;;;;;;;;;;;5094850;28;19908;-73
2024/03/25 04:38:46;;;;;;;;;;;;;;;;;;5095025;28;19995;-74
2024/03/25 04:41:12;;;;;;;;;;;;;;;;;;5095003;28;19943;-73
2024/03/25 04:43:38;;;;;;;;;;;;;;;;;;5094674;28;20305;-74
2024/03/25 04:46:04;;;;;;;;;;;;;;;;;;5093416;28;19927;-73
2024/03/25 04:48:30;;;;;;;;;;;;;;;;;;5094988;28;20003;-74
2024/03/25 04:50:56;;;;;;;;;;;;;;;;;;5094490;28;20017;-74
2024/03/25 04:53:22;;;;;;;;;;;;;;;;;;5094824;28;19946;-73
2024/03/25 04:55:48;;;;;;;;;;;;;;;;;;5094763;28;19908;-73
2024/03/25 04:58:14;;;;;;;;;;;;;;;;;;5094200;28;19977;-73
2024/03/25 05:00:40;;;;;;;;;;;;;;;;;;5094600;28;19909;-73
2024/03/25 05:03:06;;;;;;;;;;;;;;;;;;5094571;28;20003;-73
2024/03/25 05:05:32;;;;;;;;;;;;;;;;;;5092793;28;19916;-74
2024/03/25 05:07:58;;;;;;;;;;;;;;;;;;5094767;28;20388;-73
2024/03/25 05:10:24;;;;;;;;;;;;;;;;;;5094469;28;20372;-73
2024/03/25 05:12:50;;;;;;;;;;;;;;;;;;5094128;28;19908;-73
2024/03/25 05:15:16;;;;;;;;;;;;;;;;;;5094670;28;19915;-73
2024/03/25 05:17:42;;;;;;;;;;;;;;;;;;5093884;28;20129;-73
2024/03/25 05:20:09;;;;;;;;;;;;;;;;;;5092985;28;19912;-73
2024/03/25 05:22:35;;;;;;;;;;;;;;;;;;5094279;28;19908;-72
2024/03/25 05:25:01;;;;;;;;;;;;;;;;;;5093813;28;20394;-74
2024/03/25 05:27:28;;;;;;;;;;;;;;;;;;5094140;28;19919;-74
2024/03/25 05:29:53;;;;;;;;;;;;;;;;;;5092824;28;19908;-74
2024/03/25 05:32:21;;;;;;;;;;;;;;;;;;5093803;28;20054;-74
2024/03/25 05:34:48;;;;;;;;;;;;;;;;;;5094105;28;19915;-74
2024/03/25 05:37:14;;;;;;;;;;;;;;;;;;5094062;28;19908;-73
2024/03/25 05:39:40;;;;;;;;;;;;;;;;;;5092358;28;20454;-73
2024/03/25 05:42:06;;;;;;;;;;;;;;;;;;5093798;28;20341;-73
2024/03/25 05:44:32;;;;;;;;;;;;;;;;;;5093871;28;19908;-73
2024/03/25 05:46:58;;;;;;;;;;;;;;;;;;5092699;28;19920;-74
2024/03/25 05:49:23;;;;;;;;;;;;;;;;;;5092990;28;19908;-73
2024/03/25 05:51:49;;;;;;;;;;;;;;;;;;5092418;28;19962;-74
2024/03/25 05:54:15;;;;;;;;;;;;;;;;;;5092829;28;19962;-74
2024/03/25 05:56:41;;;;;;;;;;;;;;;;;;5093897;28;19908;-73
2024/03/25 05:59:08;;;;;;;;;;;;;;;;;;5093779;28;19916;-73
2024/03/25 06:01:36;;;;;;;;;;;;;;;;;;5092137;28;19909;-73
2024/03/25 06:04:02;;;;;;;;;;;;;;;;;;5092518;28;19912;-74
2024/03/25 06:06:28;;;;;;;;;;;;;;;;;;5094016;28;19923;-74
2024/03/25 06:08:54;;;;;;;;;;;;;;;;;;5092562;28;19953;-74
2024/03/25 06:11:20;;;;;;;;;;;;;;;;;;5091814;28;19908;-73
2024/03/25 06:13:47;;;;;;;;;;;;;;;;;;5091456;28;19908;-73
2024/03/25 06:16:13;;;;;;;;;;;;;;;;;;5091595;28;19935;-73
2024/03/25 06:18:40;;;;;;;;;;;;;;;;;;5090268;28;19909;-74
2024/03/25 06:21:06;;;;;;;;;;;;;;;;;;5091169;28;20548;-74
2024/03/25 06:23:31;;;;;;;;;;;;;;;;;;5091630;28;19916;-74
2024/03/25 06:25:57;;;;;;;;;;;;;;;;;;5092002;28;19916;-74
2024/03/25 06:28:23;;;;;;;;;;;;;;;;;;5092546;28;19916;-74
2024/03/25 06:36:19;;;;;;;;;;;;;;;;;;5091233;28;20422;-69
2024/03/25 06:38:45;;;;;;;;;;;;;;;;;;5092407;28;20368;-66
2024/03/25 06:41:11;;;;;;;;;;;;;;;;;;5091452;28;19912;-66
2024/03/25 06:43:38;;;;;;;;;;;;;;;;;;5092249;28;19919;-66
2024/03/25 06:46:03;;;;;;;;;;;;;;;;;;5090157;28;19997;-66
2024/03/25 06:48:31;;;;;;;;;;;;;;;;;;5092662;28;19922;-66
2024/03/25 06:50:57;;;;;;;;;;;;;;;;;;5101125;28;19912;-66
2024/03/25 06:53:23;;;;;;;;;;;;;;;;;;5095149;28;19912;-66
2024/03/25 06:55:49;;;;;;;;;;;;;;;;;;5086279;28;19912;-68
2024/03/25 06:58:15;;;;;;;;;;;;;;;;;;5091317;28;19959;-68
2024/03/25 07:00:41;;;;;;;;;;;;;;;;;;5091970;28;19916;-67
2024/03/25 07:03:07;;;;;;;;;;;;;;;;;;5096811;28;19950;-68
2024/03/25 07:05:34;;;;;;;;;;;;;;;;;;5094751;28;19919;-67
2024/03/25 07:08:00;;;;;;;;;;;;;;;;;;5080663;28;20438;-67
2024/03/25 07:10:26;;;;;;;;;;;;;;;;;;5088455;28;19958;-67
2024/03/25 07:12:55;;;;;;;;;;;;;;;;;;5083800;28;19916;-67
2024/03/25 07:15:21;;;;;;;;;;;;;;;;;;5109803;28;19911;-68
2024/03/25 07:17:47;;;;;;;;;;;;;;;;;;5110381;28;20380;-67
2024/03/25 07:20:22;;;;;;;;;;;;;;;;;;5111880;28;19916;-69
2024/03/25 07:22:48;;;;;;;;;;;;;;;;;;5097810;28;20011;-68
2024/03/25 07:25:14;;;;;;;;;;;;;;;;;;5097158;28;20411;-67
2024/03/25 07:27:40;;;;;;;;;;;;;;;;;;5097290;28;20372;-67
2024/03/25 07:30:06;;;;;;;;;;;;;;;;;;5079142;28;19957;-67
2024/03/25 07:32:32;;;;;;;;;;;;;;;;;;5100241;28;20368;-68
2024/03/25 07:34:58;;;;;;;;;;;;;;;;;;5096022;28;19927;-68
2024/03/25 07:37:24;;;;;;;;;;;;;;;;;;5100683;28;20408;-68
2024/03/25 07:39:51;;;;;;;;;;;;;;;;;;5096158;28;20323;-67
2024/03/25 07:42:17;;;;;;;;;;;;;;;;;;5101030;28;20635;-68
2024/03/25 07:44:43;;;;;;;;;;;;;;;;;;5099051;28;19926;-67
2024/03/25 07:47:09;;;;;;;;;;;;;;;;;;5094258;28;20379;-68
2024/03/25 07:49:35;;;;;;;;;;;;;;;;;;5102135;28;21415;-67
2024/03/25 07:52:00;;;;;;;;;;;;;;;;;;5084172;28;19992;-69
2024/03/25 07:54:26;;;;;;;;;;;;;;;;;;5088560;28;19955;-66
2024/03/25 07:56:52;;;;;;;;;;;;;;;;;;5092018;28;19919;-66
2024/03/25 07:59:18;;;;;;;;;;;;;;;;;;5093584;28;19950;-66
2024/03/25 08:01:45;;;;;;;;;;;;;;;;;;5093628;28;19909;-67
2024/03/25 08:04:11;;;;;;;;;;;;;;;;;;5101293;28;20319;-68
2024/03/25 08:06:37;;;;;;;;;;;;;;;;;;5090326;28;20006;-67
2024/03/25 08:09:06;;;;;;;;;;;;;;;;;;5072834;28;19955;-67
2024/03/25 08:11:32;;;;;;;;;;;;;;;;;;5089066;28;19915;-68
2024/03/25 08:13:58;;;;;;;;;;;;;;;;;;5091735;28;20276;-68
2024/03/25 08:16:24;;;;;;;;;;;;;;;;;;5101949;28;19990;-68
2024/03/25 08:18:50;;;;;;;;;;;;;;;;;;5089194;28;19916;-67
2024/03/25 08:21:16;;;;;;;;;;;;;;;;;;5103055;28;19907;-67
2024/03/25 08:23:42;;;;;;;;;;;;;;;;;;5077631;28;19927;-68
2024/03/25 08:26:09;;;;;;;;;;;;;;;;;;5071167;28;19928;-67
2024/03/25 08:28:35;;;;;;;;;;;;;;;;;;5078114;28;19913;-66
2024/03/25 08:31:01;;;;;;;;;;;;;;;;;;5096316;28;19961;-66
2024/03/25 08:33:28;;;;;;;;;;;;;;;;;;5102699;28;19915;-66
2024/03/25 08:35:54;;;;;;;;;;;;;;;;;;5099838;28;19997;-65
2024/03/25 08:38:20;;;;;;;;;;;;;;;;;;5098380;28;19962;-67
2024/03/25 08:40:46;;;;;;;;;;;;;;;;;;5103172;28;20415;-66
2024/03/25 08:43:12;;;;;;;;;;;;;;;;;;5102345;28;19912;-67
2024/03/25 08:45:38;;;;;;;;;;;;;;;;;;5091360;28;19943;-67
2024/03/25 08:48:04;;;;;;;;;;;;;;;;;;5104696;28;20291;-67
2024/03/25 08:50:30;;;;;;;;;;;;;;;;;;5108994;28;19911;-67
2024/03/25 08:52:56;;;;;;;;;;;;;;;;;;5097709;28;20355;-67
2024/03/25 08:55:22;;;;;;;;;;;;;;;;;;5078598;28;20022;-67
2024/03/25 08:57:48;;;;;;;;;;;;;;;;;;5107937;28;19912;-67
2024/03/25 09:00:15;;;;;;;;;;;;;;;;;;5091304;28;19912;-68
2024/03/25 09:02:40;;;;;;;;;;;;;;;;;;5089430;28;19915;-71
2024/03/25 09:05:08;;;;;;;;;;;;;;;;;;5093619;28;19911;-71
2024/03/25 09:07:33;;;;;;;;;;;;;;;;;;5111562;28;20371;-70
2024/03/25 09:12:44;;;;;;;;;;;;;;;;;;5091558;28;19938;-70
2024/03/25 09:15:10;;;;;;;;;;;;;;;;;;5090864;28;20316;-70
2024/03/25 09:17:36;;;;;;;;;;;;;;;;;;5098231;28;19960;-70
2024/03/25 09:20:04;;;;;;;;;;;;;;;;;;5110686;28;20020;-70
2024/03/25 09:22:30;;;;;;;;;;;;;;;;;;5110549;28;19912;-69
2024/03/25 09:24:56;;;;;;;;;;;;;;;;;;5079920;28;19996;-70
2024/03/25 09:27:22;;;;;;;;;;;;;;;;;;5101101;28;20203;-72
2024/03/25 09:29:48;;;;;;;;;;;;;;;;;;5095827;28;19912;-71
2024/03/25 09:32:14;;;;;;;;;;;;;;;;;;5102091;28;19991;-72
2024/03/25 09:34:47;;;;;;;;;;;;;;;;;;5087489;28;19916;-70
2024/03/25 09:37:13;;;;;;;;;;;;;;;;;;5107045;28;20615;-70
2024/03/25 09:39:39;;;;;;;;;;;;;;;;;;5083214;28;19951;-71
2024/03/25 09:42:05;;;;;;;;;;;;;;;;;;5106944;28;19919;-71
2024/03/25 09:44:31;;;;;;;;;;;;;;;;;;5089442;28;20309;-72
2024/03/25 09:46:57;;;;;;;;;;;;;;;;;;5088855;28;19924;-70
2024/03/25 09:49:23;;;;;;;;;;;;;;;;;;5089610;28;19915;-70
2024/03/25 09:51:49;;;;;;;;;;;;;;;;;;5088736;28;20288;-72
2024/03/25 09:54:15;;;;;;;;;;;;;;;;;;5099276;28;19918;-73
2024/03/25 09:56:41;;;;;;;;;;;;;;;;;;5110870;28;19908;-74
2024/03/25 09:59:07;;;;;;;;;;;;;;;;;;5111251;28;19908;-73
2024/03/25 10:01:33;;;;;;;;;;;;;;;;;;5112415;28;19912;-75
2024/03/25 10:03:59;;;;;;;;;;;;;;;;;;5108790;28;20373;-73
2024/03/25 10:08:34;;;;;;;;;;;;;;;;;;5088181;27;19913;-73
2024/03/25 10:11:00;;;;;;;;;;;;;;;;;;5068791;28;20027;-71
2024/03/25 10:13:26;;;;;;;;;;;;;;;;;;5066790;28;20007;-74
2024/03/25 10:15:52;;;;;;;;;;;;;;;;;;5067409;28;19909;-75
2024/03/25 10:18:18;;;;;;;;;;;;;;;;;;5066711;28;19912;-72
2024/03/25 10:20:44;;;;;;;;;;;;;;;;;;5069367;28;19913;-71
2024/03/25 10:23:10;;;;;;;;;;;;;;;;;;5067610;28;20383;-72
2024/03/25 10:25:36;;;;;;;;;;;;;;;;;;5070024;28;20233;-71
2024/03/25 10:28:03;;;;;;;;;;;;;;;;;;5067930;28;20374;-69
2024/03/25 10:30:29;;;;;;;;;;;;;;;;;;5068804;28;20350;-73
2024/03/25 10:32:55;;;;;;;;;;;;;;;;;;5062048;28;20019;-72
2024/03/25 10:35:21;;;;;;;;;;;;;;;;;;5059011;28;19921;-69
2024/03/25 10:37:47;;;;;;;;;;;;;;;;;;5067633;28;20352;-71
2024/03/25 10:40:13;;;;;;;;;;;;;;;;;;5068623;28;19962;-71
2024/03/25 10:42:39;;;;;;;;;;;;;;;;;;5063742;28;19920;-70
2024/03/25 10:45:20;;;;;;;;;;;;;;;;;;5087855;27;20380;-70
2024/03/25 10:47:47;;;;;;;;;;;;;;;;;;5077689;28;19912;-71
2024/03/25 10:50:13;;;;;;;;;;;;;;;;;;5118146;28;19908;-72
2024/03/25 10:52:39;;;;;;;;;;;;;;;;;;5087649;28;19912;-71
2024/03/25 10:55:05;;;;;;;;;;;;;;;;;;5087003;28;19916;-72
2024/03/25 10:57:31;;;;;;;;;;;;;;;;;;5087443;28;19912;-71
2024/03/25 10:59:59;;;;;;;;;;;;;;;;;;5089230;28;20255;-72
2024/03/25 11:02:25;;;;;;;;;;;;;;;;;;5087421;28;20087;-73
2024/03/25 11:04:56;;;;;;;;;;;;;;;;;;5075914;28;20292;-71
2024/03/25 11:07:28;;;;;;;;;;;;;;;;;;5077132;28;20015;-71
2024/03/25 11:09:53;;;;;;;;;;;;;;;;;;5085264;28;19909;-70
2024/03/25 11:12:20;;;;;;;;;;;;;;;;;;5084354;28;20372;-71
2024/03/25 11:14:45;;;;;;;;;;;;;;;;;;5085895;28;19915;-69
2024/03/25 11:17:11;;;;;;;;;;;;;;;;;;5079696;28;21461;-71
2024/03/25 11:21:47;;;;;;;;;;;;;;;;;;5085292;27;19917;-72
2024/03/25 11:24:13;;;;;;;;;;;;;;;;;;5086114;28;19916;-71
2024/03/25 11:26:39;;;;;;;;;;;;;;;;;;5089041;28;19912;-70
2024/03/25 11:29:04;;;;;;;;;;;;;;;;;;5087972;28;20331;-72
2024/03/25 11:31:31;;;;;;;;;;;;;;;;;;5088760;28;19915;-73
2024/03/25 11:33:57;;;;;;;;;;;;;;;;;;5087774;28;19921;-71
2024/03/25 11:36:25;;;;;;;;;;;;;;;;;;5090102;28;19956;-70
2024/03/25 11:38:52;;;;;;;;;;;;;;;;;;5087619;28;19916;-71
2024/03/25 11:41:19;;;;;;;;;;;;;;;;;;5087023;28;19939;-71
2024/03/25 11:47:12;;;;;;;;;;;;;;;;;;5087458;27;19919;-71
2024/03/25 11:49:38;;;;;;;;;;;;;;;;;;5089712;28;19912;-70
2024/03/25 11:53:49;;;;;;;;;;;;;;;;;;5088446;27;19913;-74
2024/03/25 11:58:41;;;;;;;;;;;;;;;;;;5039304;27;19925;-73
2024/03/25 12:01:08;;;;;;;;;;;;;;;;;;5043328;28;19983;-74
2024/03/25 12:03:34;;;;;;;;;;;;;;;;;;5045055;28;19913;-73
2024/03/25 12:07:11;;;;;;;;;;;;;;;;;;5129056;27;19911;-73
2024/03/25 12:13:12;;;;;;;;;;;;;;;;;;5088274;27;19917;-73
2024/03/25 12:18:16;;;;;;;;;;;;;;;;;;5027820;28;19928;-69
2024/03/25 12:22:53;;;;;;;;;;;;;;;;;;5087700;27;19923;-69
2024/03/25 12:25:19;;;;;;;;;;;;;;;;;;5089382;28;19913;-69
2024/03/25 12:27:45;;;;;;;;;;;;;;;;;;5088824;28;19912;-69
2024/03/25 12:30:11;;;;;;;;;;;;;;;;;;5088791;28;19908;-69
2024/03/25 12:32:37;;;;;;;;;;;;;;;;;;5090581;28;19916;-70
2024/03/25 12:42:35;;;;;;;;;;;;;;;;;;5090246;27;19924;-69
2024/03/25 12:49:16;;;;;;;;;;;;;;;;;;5089856;27;19913;-69
2024/03/25 12:51:42;;;;;;;;;;;;;;;;;;5090146;28;20003;-70
2024/03/25 12:54:08;;;;;;;;;;;;;;;;;;5089761;28;20418;-69
2024/03/25 12:57:38;;;;;;;;;;;;;;;;;;5110606;27;19934;-68
2024/03/25 13:05:06;;;;;;;;;;;;;;;;;;5090661;27;19916;-69
2024/03/25 13:07:32;;;;;;;;;;;;;;;;;;5088370;28;19991;-70
2024/03/25 13:11:47;;;;;;;;;;;;;;;;;;5170376;27;19915;-69
2024/03/25 13:14:13;;;;;;;;;;;;;;;;;;5170360;27;19918;-71
2024/03/25 13:16:39;;;;;;;;;;;;;;;;;;5153584;27;19910;-70
2024/03/25 13:19:36;;;;;;;;;;;;;;;;;;5143823;27;19916;-69
2024/03/25 13:22:55;;;;;;;;;;;;;;;;;;5089146;27;20403;-72
2024/03/25 13:25:21;;;;;;;;;;;;;;;;;;5087687;28;19986;-73
2024/03/25 13:27:47;;;;;;;;;;;;;;;;;;5090819;28;19935;-71
2024/03/25 13:30:13;;;;;;;;;;;;;;;;;;5090039;28;20288;-73
2024/03/25 13:32:39;;;;;;;;;;;;;;;;;;5089016;28;20246;-71
2024/03/25 13:35:06;;;;;;;;;;;;;;;;;;5090139;28;19916;-69
2024/03/25 13:37:32;;;;;;;;;;;;;;;;;;5090090;28;19908;-69
2024/03/25 13:42:26;;;;;;;;;;;;;;;;;;5070339;28;19919;-70
2024/03/25 13:44:53;;;;;;;;;;;;;;;;;;5068513;28;20377;-70
2024/03/25 13:47:19;;;;;;;;;;;;;;;;;;5061946;28;19909;-71
2024/03/25 13:49:44;;;;;;;;;;;;;;;;;;5070240;28;19923;-71
2024/03/25 13:52:10;;;;;;;;;;;;;;;;;;5068211;28;19915;-70
2024/03/25 13:54:36;;;;;;;;;;;;;;;;;;5070242;28;19952;-73
2024/03/25 13:57:03;;;;;;;;;;;;;;;;;;5069725;28;19916;-74
2024/03/25 13:59:29;;;;;;;;;;;;;;;;;;5068827;28;19915;-73
2024/03/25 14:01:55;;;;;;;;;;;;;;;;;;5069122;28;19921;-74
2024/03/25 14:04:21;;;;;;;;;;;;;;;;;;5068683;28;19909;-73
2024/03/25 14:06:49;;;;;;;;;;;;;;;;;;5067989;28;19955;-74
2024/03/25 14:09:15;;;;;;;;;;;;;;;;;;5067287;28;20213;-73
2024/03/25 14:11:41;;;;;;;;;;;;;;;;;;5067578;28;19977;-73
2024/03/25 14:14:06;;;;;;;;;;;;;;;;;;5068259;28;20330;-74
2024/03/25 14:16:32;;;;;;;;;;;;;;;;;;5069122;28;19909;-73
2024/03/25 14:18:58;;;;;;;;;;;;;;;;;;5067112;28;20273;-73
2024/03/25 14:21:24;;;;;;;;;;;;;;;;;;5067899;28;19921;-74
2024/03/25 14:24:47;;;;;;;;;;;;;;;;;;5110530;27;19916;-73
2024/03/25 14:29:09;;;;;;;;;;;;;;;;;;5090261;27;19926;-74
2024/03/25 14:34:59;;;;;;;;;;;;;;;;;;5070934;28;19923;-74
2024/03/25 14:37:25;;;;;;;;;;;;;;;;;;5070172;28;20288;-74
2024/03/25 14:41:22;;;;;;;;;;;;;;;;;;5090901;27;20406;-73
2024/03/25 14:43:50;;;;;;;;;;;;;;;;;;5090564;28;20003;-73
2024/03/25 14:46:17;;;;;;;;;;;;;;;;;;5091283;28;19954;-73
2024/03/25 14:48:42;;;;;;;;;;;;;;;;;;5090871;28;19909;-73
2024/03/25 14:51:09;;;;;;;;;;;;;;;;;;5091197;28;19912;-75
2024/03/25 14:54:46;;;;;;;;;;;;;;;;;;5111271;27;19916;-72
2024/03/25 14:57:12;;;;;;;;;;;;;;;;;;5111701;28;20344;-73
2024/03/25 14:59:38;;;;;;;;;;;;;;;;;;5110334;28;19908;-73
2024/03/25 15:02:04;;;;;;;;;;;;;;;;;;5109985;28;19908;-75
2024/03/25 15:04:31;;;;;;;;;;;;;;;;;;5110230;28;19908;-74
2024/03/25 15:06:58;;;;;;;;;;;;;;;;;;5111528;28;19995;-74
2024/03/25 15:09:24;;;;;;;;;;;;;;;;;;5110794;28;19954;-73
2024/03/25 15:11:50;;;;;;;;;;;;;;;;;;5111410;28;19908;-74
2024/03/25 15:14:15;;;;;;;;;;;;;;;;;;5109924;28;20027;-74
2024/03/25 15:16:41;;;;;;;;;;;;;;;;;;5110967;28;19915;-73
2024/03/25 15:19:10;;;;;;;;;;;;;;;;;;5111460;28;19915;-74
2024/03/25 15:21:36;;;;;;;;;;;;;;;;;;5111830;28;19915;-74
2024/03/25 15:24:02;;;;;;;;;;;;;;;;;;5110851;28;19908;-74
2024/03/25 15:26:28;;;;;;;;;;;;;;;;;;5111217;28;19915;-74
2024/03/25 15:28:54;;;;;;;;;;;;;;;;;;5111194;28;19908;-74
2024/03/25 15:31:20;;;;;;;;;;;;;;;;;;5110638;28;19908;-74
2024/03/25 15:33:46;;;;;;;;;;;;;;;;;;5110994;28;19934;-74
2024/03/25 15:36:12;;;;;;;;;;;;;;;;;;5111062;28;19908;-74
2024/03/25 15:38:38;;;;;;;;;;;;;;;;;;5110635;28;19908;-74
2024/03/25 15:41:04;;;;;;;;;;;;;;;;;;5110812;28;19963;-74
2024/03/25 15:43:30;;;;;;;;;;;;;;;;;;5110404;28;19908;-75
2024/03/25 15:45:56;;;;;;;;;;;;;;;;;;5110525;28;19915;-74
2024/03/25 15:48:22;;;;;;;;;;;;;;;;;;5110735;28;19969;-74
2024/03/25 15:50:48;;;;;;;;;;;;;;;;;;5109985;28;19937;-74
2024/03/25 15:53:14;;;;;;;;;;;;;;;;;;5110344;28;19927;-74
2024/03/25 15:57:17;;;;;;;;;;;;;;;;;;5112426;27;20366;-73
2024/03/25 15:59:43;;;;;;;;;;;;;;;;;;5111317;28;19912;-73
2024/03/25 16:04:41;;;;;;;;;;;;;;;;;;5091418;27;19917;-74
2024/03/25 16:07:08;;;;;;;;;;;;;;;;;;5091361;28;19912;-73
2024/03/25 16:09:34;;;;;;;;;;;;;;;;;;5091523;28;19923;-73
2024/03/25 16:12:00;;;;;;;;;;;;;;;;;;5090889;28;19912;-73
2024/03/25 16:14:26;;;;;;;;;;;;;;;;;;5091273;28;19908;-74
2024/03/25 16:16:52;;;;;;;;;;;;;;;;;;5089659;28;19912;-74
2024/03/25 16:21:39;;;;;;;;;;;;;;;;;;5112073;27;20419;-73
2024/03/25 16:24:05;;;;;;;;;;;;;;;;;;5110912;28;19912;-73
2024/03/25 16:30:56;;;;;;;;;;;;;;;;;;5111642;27;19912;-73
2024/03/25 16:33:22;;;;;;;;;;;;;;;;;;5110602;28;19912;-73
2024/03/25 16:35:48;;;;;;;;;;;;;;;;;;5111584;28;19969;-74
2024/03/25 16:38:14;;;;;;;;;;;;;;;;;;5110210;28;19912;-73
2024/03/25 16:40:40;;;;;;;;;;;;;;;;;;5111200;28;20011;-74
2024/03/25 16:43:06;;;;;;;;;;;;;;;;;;5111470;28;20372;-73
2024/03/25 16:45:32;;;;;;;;;;;;;;;;;;5111506;28;19908;-73
2024/03/25 16:48:00;;;;;;;;;;;;;;;;;;5111121;28;19908;-74
2024/03/25 16:50:27;;;;;;;;;;;;;;;;;;5111142;28;19969;-74
2024/03/25 16:52:53;;;;;;;;;;;;;;;;;;5110897;28;19916;-74
2024/03/25 16:55:19;;;;;;;;;;;;;;;;;;5110523;28;20383;-74
2024/03/25 16:57:45;;;;;;;;;;;;;;;;;;5111455;28;20283;-72
2024/03/25 17:00:12;;;;;;;;;;;;;;;;;;5110511;28;19908;-73
2024/03/25 17:02:38;;;;;;;;;;;;;;;;;;5110756;28;19931;-73
2024/03/25 17:05:04;;;;;;;;;;;;;;;;;;5109886;28;19908;-75
2024/03/25 17:07:30;;;;;;;;;;;;;;;;;;5109835;28;20284;-74
2024/03/25 17:09:56;;;;;;;;;;;;;;;;;;5110656;28;19938;-75
2024/03/25 17:12:22;;;;;;;;;;;;;;;;;;5109857;28;19915;-72
2024/03/25 17:14:48;;;;;;;;;;;;;;;;;;5110921;28;19908;-74
2024/03/25 17:17:14;;;;;;;;;;;;;;;;;;5108869;28;19962;-74
2024/03/25 17:19:40;;;;;;;;;;;;;;;;;;5110234;28;19919;-74
2024/03/25 17:22:06;;;;;;;;;;;;;;;;;;5110552;28;19908;-75
2024/03/25 17:24:32;;;;;;;;;;;;;;;;;;5110892;28;19908;-74
2024/03/25 17:26:58;;;;;;;;;;;;;;;;;;5110946;28;19998;-72
2024/03/25 17:29:23;;;;;;;;;;;;;;;;;;5110858;28;19920;-74
2024/03/25 17:31:49;;;;;;;;;;;;;;;;;;5111369;28;19962;-75
2024/03/25 17:34:15;;;;;;;;;;;;;;;;;;5111337;28;19916;-74
2024/03/25 17:36:41;;;;;;;;;;;;;;;;;;5110686;28;19908;-74
2024/03/25 17:39:07;;;;;;;;;;;;;;;;;;5110957;28;19931;-73
2024/03/25 17:41:33;;;;;;;;;;;;;;;;;;5101108;28;19919;-74
2024/03/25 17:43:59;;;;;;;;;;;;;;;;;;5096765;28;19908;-73
2024/03/25 17:46:25;;;;;;;;;;;;;;;;;;5095779;28;19961;-74
2024/03/25 17:48:51;;;;;;;;;;;;;;;;;;5097077;28;19960;-74
2024/03/25 17:51:17;;;;;;;;;;;;;;;;;;5096413;28;19912;-73